MET'MAP v2.0
soon released !

Expected late october,
this new version will be
more efficient, smarter,
and hosted on a brand new
server x3 powerfull...
...and still free !


Not compatible ?
Try the mobile version !

LOG IN : | Subscribe | Disclaimer | Who is Orbifly ? |
ICAO code :

TAF - LFLY Lyon Bron - 25 Jan 2020 18:15 UTC
Data Sources :     NOAA   


- Airport Elevation : 659 ft
- IATA code : LYN
- No reported NOTAMs.


LFLY - Lyon Bron

Latest METAR recorded : 2015/08/11 08:00 LFLY 110800Z AUTO 34005KT 320V020 9999 BKN015 BKN020 OVC028 21/17 Q1017
TAF AMD TAF LFLY
Valid from the 25 at 12:00 until the 26 at 12:00 UTC


251224Z 2512/2612 VRB02KT 7000 NSC
TEMPO 2518/2610 4500 BR
PROB30
TEMPO 2600/2606 2800 -RA BR BKN014
PROB40
TEMPO 2606/2612 6000 -RA FEW017 OVC050
BECMG 2610/2612 18010KT

Source NOAA
ATIS : +33 4 72 15 87 96


MET'MAP, your aeronautical weather chart ! - Copyright ORBIFLY December 2007

Programming & Development : Alexandra Zaïnal
Co-Developer : Marc-Olivier Méhu
Technical & hardware support : Manuel Goepfert
Concept & Financing : Baudouin d'Aumeries